createdAt,value
2019-03-06T00:01:31.250Z,80.54
2019-03-06T00:04:01.681Z,80.99
2019-03-06T00:06:32.509Z,80.99
2019-03-06T00:09:03.323Z,80.98
2019-03-06T00:11:33.747Z,81.16
2019-03-06T00:14:04.541Z,81.43
2019-03-06T00:16:35.280Z,81.50
2019-03-06T00:19:05.708Z,81.84
2019-03-06T00:21:36.201Z,82.10
2019-03-06T00:24:06.639Z,82.22
2019-03-06T00:26:37.061Z,82.47
2019-03-06T00:29:07.612Z,82.67
2019-03-06T00:31:38.217Z,82.47
2019-03-06T00:34:08.668Z,82.54
2019-03-06T00:36:39.460Z,82.37
2019-03-06T00:39:10.183Z,82.62
2019-03-06T00:41:46.227Z,82.83
2019-03-06T00:44:16.711Z,82.80
2019-03-06T00:46:47.140Z,82.72
2019-03-06T00:49:17.577Z,82.81
2019-03-06T00:51:48.036Z,82.68
2019-03-06T00:54:18.480Z,82.76
2019-03-06T00:56:48.982Z,82.60
2019-03-06T00:59:20.157Z,82.36
2019-03-06T01:01:52.084Z,82.18
2019-03-06T01:04:22.637Z,82.21
2019-03-06T01:06:53.676Z,82.62
2019-03-06T01:09:24.116Z,82.63
2019-03-06T01:11:55.573Z,82.46
2019-03-06T01:14:26.653Z,82.50
2019-03-06T01:16:57.099Z,82.23
2019-03-06T01:19:27.559Z,82.89
2019-03-06T01:21:57.989Z,83.32
2019-03-06T01:24:28.827Z,82.91
2019-03-06T01:26:59.257Z,82.83
2019-03-06T01:29:29.717Z,83.07
2019-03-06T01:32:00.452Z,82.91
2019-03-06T01:34:55.672Z,82.65
2019-03-06T01:37:40.817Z,82.77
2019-03-06T01:40:23.280Z,82.80
2019-03-06T01:42:58.377Z,82.54
2019-03-06T01:45:28.804Z,82.80
2019-03-06T01:47:59.235Z,82.44
2019-03-06T01:50:29.867Z,82.88
2019-03-06T01:53:00.297Z,82.31
2019-03-06T01:55:31.680Z,82.82
2019-03-06T01:58:02.113Z,83.19
2019-03-06T02:00:33.196Z,83.27
2019-03-06T02:03:03.689Z,83.27
2019-03-06T02:05:34.648Z,83.40
2019-03-06T02:08:05.282Z,83.49
2019-03-06T02:10:35.712Z,83.44
2019-03-06T02:13:08.340Z,83.62
2019-03-06T02:15:38.776Z,83.94
2019-03-06T02:18:09.213Z,84.17
2019-03-06T02:20:39.668Z,84.33
2019-03-06T02:23:10.185Z,84.36
2019-03-06T02:25:40.636Z,84.28
2019-03-06T02:28:11.948Z,84.48
2019-03-06T02:30:42.437Z,84.07
2019-03-06T02:33:12.865Z,84.89
2019-03-06T02:35:43.475Z,84.21
2019-03-06T02:38:13.937Z,85.10
2019-03-06T02:40:44.363Z,84.23
2019-03-06T02:43:14.848Z,84.57
2019-03-06T02:45:45.266Z,84.27
2019-03-06T02:48:15.698Z,84.68
2019-03-06T02:50:46.283Z,84.49
2019-03-06T02:53:16.698Z,84.93
2019-03-06T02:55:47.132Z,84.95
2019-03-06T02:58:21.753Z,84.67
2019-03-06T03:01:03.733Z,85.14
2019-03-06T03:03:52.039Z,85.28
2019-03-06T03:06:27.925Z,85.33
2019-03-06T03:08:58.414Z,85.35
2019-03-06T03:11:29.928Z,85.44
2019-03-06T03:14:01.101Z,85.72
2019-03-06T03:16:31.659Z,85.41
2019-03-06T03:19:02.091Z,85.46
2019-03-06T03:21:32.904Z,85.35
2019-03-06T03:24:03.405Z,85.12
2019-03-06T03:26:33.894Z,85.41
2019-03-06T03:29:04.367Z,84.97
2019-03-06T03:31:35.138Z,85.47
2019-03-06T03:34:06.135Z,85.16
2019-03-06T03:36:36.911Z,85.15
2019-03-06T03:39:09.261Z,84.95
2019-03-06T03:41:39.703Z,85.28
2019-03-06T03:44:10.194Z,85.29
2019-03-06T03:46:40.662Z,85.34
2019-03-06T03:49:11.087Z,85.12
2019-03-06T03:51:41.513Z,84.85
2019-03-06T03:54:11.981Z,84.82
2019-03-06T03:56:42.970Z,84.60
2019-03-06T03:59:13.759Z,84.97
2019-03-06T04:01:44.693Z,84.48
2019-03-06T04:04:16.115Z,85.14
2019-03-06T04:06:46.579Z,85.37
2019-03-06T04:09:17.043Z,85.08
2019-03-06T04:11:47.487Z,84.72
2019-03-06T04:14:18.084Z,85.28
2019-03-06T04:16:48.910Z,85.03
2019-03-06T04:19:19.329Z,85.23
2019-03-06T04:21:49.754Z,84.95
2019-03-06T04:24:20.231Z,85.53
2019-03-06T04:26:50.652Z,85.80
2019-03-06T04:29:21.074Z,85.55
2019-03-06T04:31:51.555Z,85.72
2019-03-06T04:34:22.326Z,85.87
2019-03-06T04:36:53.128Z,85.98
2019-03-06T04:39:23.596Z,86.08
2019-03-06T04:41:54.334Z,86.25
2019-03-06T04:44:24.836Z,86.17
2019-03-06T04:46:55.317Z,86.01
2019-03-06T04:49:25.758Z,86.57
2019-03-06T04:51:56.226Z,86.42
2019-03-06T04:54:26.710Z,86.42
2019-03-06T04:56:57.174Z,86.85
2019-03-06T04:59:27.877Z,87.08
2019-03-06T05:01:58.367Z,86.70
2019-03-06T05:04:28.802Z,86.64
2019-03-06T05:06:59.244Z,86.48
2019-03-06T05:09:29.776Z,86.48
2019-03-06T05:12:00.208Z,86.48
2019-03-06T05:14:30.646Z,86.44
2019-03-06T05:17:23.101Z,86.14
2019-03-06T05:19:54.145Z,86.57
2019-03-06T05:22:24.585Z,86.66
2019-03-06T05:24:55.377Z,86.78
2019-03-06T05:27:26.112Z,86.74
2019-03-06T05:29:56.548Z,86.60
2019-03-06T05:32:34.544Z,87.08
2019-03-06T05:35:08.736Z,86.78
2019-03-06T05:38:12.299Z,86.50
2019-03-06T05:40:43.085Z,86.48
2019-03-06T05:43:13.521Z,86.57
2019-03-06T05:45:44.358Z,86.95
2019-03-06T05:48:14.796Z,86.55
2019-03-06T05:50:45.237Z,86.71
2019-03-06T05:53:15.721Z,86.73
2019-03-06T05:55:46.160Z,86.90
2019-03-06T05:58:16.860Z,86.19
2019-03-06T06:00:47.358Z,86.77
2019-03-06T06:03:18.180Z,86.50
2019-03-06T06:05:48.921Z,86.88
2019-03-06T06:08:20.171Z,86.97
2019-03-06T06:10:50.652Z,87.00
2019-03-06T06:13:21.091Z,86.91
2019-03-06T06:15:51.966Z,86.83
2019-03-06T06:18:23.178Z,87.01
2019-03-06T06:21:05.781Z,87.12
2019-03-06T06:23:46.415Z,86.63
2019-03-06T06:26:17.313Z,87.14
2019-03-06T06:28:48.012Z,87.19
2019-03-06T06:31:18.803Z,86.97
2019-03-06T06:33:49.646Z,86.73
2019-03-06T06:36:20.078Z,86.57
2019-03-06T06:38:50.692Z,86.42
2019-03-06T06:41:21.425Z,86.57
2019-03-06T06:43:51.856Z,86.73
2019-03-06T06:46:22.289Z,86.60
2019-03-06T06:48:53.037Z,86.59
2019-03-06T06:51:54.727Z,86.94
2019-03-06T06:54:41.967Z,86.81
2019-03-06T06:58:08.289Z,86.27
2019-03-06T07:01:13.010Z,86.31
2019-03-06T07:04:37.301Z,85.83
2019-03-06T07:07:28.349Z,86.00
2019-03-06T07:10:16.368Z,85.84
2019-03-06T07:13:06.041Z,85.77
2019-03-06T07:16:10.818Z,85.18
2019-03-06T07:19:03.313Z,85.82
2019-03-06T07:21:51.037Z,85.21
2019-03-06T07:24:39.477Z,85.25
2019-03-06T07:27:27.729Z,85.24
2019-03-06T07:30:23.115Z,85.14
2019-03-06T07:33:27.583Z,85.27
2019-03-06T07:36:16.789Z,85.18
2019-03-06T07:38:47.654Z,84.83
2019-03-06T07:41:35.736Z,84.95
2019-03-06T07:44:30.249Z,85.51
2019-03-06T07:47:10.785Z,85.38
2019-03-06T07:49:51.317Z,84.94
2019-03-06T07:52:35.603Z,84.42
2019-03-06T07:55:45.231Z,84.32
2019-03-06T07:58:51.529Z,84.06
2019-03-06T08:01:25.041Z,84.29
2019-03-06T08:04:02.205Z,83.81
2019-03-06T08:06:33.127Z,83.47
2019-03-06T08:09:04.340Z,83.53
2019-03-06T08:11:56.715Z,83.09
2019-03-06T08:14:44.751Z,83.64
2019-03-06T08:17:33.144Z,83.74
2019-03-06T08:20:34.717Z,83.65
2019-03-06T08:23:36.396Z,83.60
2019-03-06T08:26:06.850Z,83.37
2019-03-06T08:28:37.285Z,83.81
2019-03-06T08:31:20.266Z,84.16
2019-03-06T08:33:50.711Z,83.67
2019-03-06T08:36:21.151Z,83.89
2019-03-06T08:38:51.629Z,83.53
2019-03-06T08:41:22.251Z,84.03
2019-03-06T08:43:52.700Z,83.79
2019-03-06T08:46:42.856Z,83.02
2019-03-06T08:49:42.144Z,83.33
2019-03-06T08:52:32.579Z,83.14
2019-03-06T08:55:20.730Z,83.29
2019-03-06T08:58:19.913Z,82.85
2019-03-06T09:01:21.703Z,82.75
2019-03-06T09:04:13.444Z,82.37
2019-03-06T09:06:55.336Z,82.16
2019-03-06T09:09:44.749Z,81.46
2019-03-06T09:12:27.284Z,81.33
2019-03-06T09:15:29.048Z,80.95
2019-03-06T09:18:20.046Z,81.06
2019-03-06T09:21:15.418Z,80.27
2019-03-06T09:24:04.773Z,79.33
2019-03-06T09:26:54.198Z,79.60
2019-03-06T09:29:46.527Z,79.20
2019-03-06T09:32:24.956Z,79.09
2019-03-06T09:35:17.186Z,78.45
2019-03-06T09:38:18.691Z,77.84
2019-03-06T09:41:23.417Z,78.09
2019-03-06T09:44:11.062Z,77.98
2019-03-06T09:47:19.091Z,76.82
2019-03-06T09:50:11.760Z,76.76
2019-03-06T09:52:59.776Z,76.29
2019-03-06T09:55:47.990Z,76.23
2019-03-06T09:58:33.777Z,76.52
2019-03-06T10:01:22.192Z,74.84
2019-03-06T10:04:17.384Z,75.62
2019-03-06T10:07:12.682Z,75.50
2019-03-06T10:10:04.948Z,75.53
2019-03-06T10:12:47.551Z,75.40
2019-03-06T10:15:45.809Z,75.65
2019-03-06T10:18:21.314Z,75.23
2019-03-06T10:20:52.131Z,75.82
2019-03-06T10:23:23.035Z,75.68
2019-03-06T10:25:53.629Z,75.69
2019-03-06T10:28:27.900Z,75.74
2019-03-06T10:31:02.362Z,75.61
2019-03-06T10:33:28.885Z,75.37
2019-03-06T10:35:59.328Z,75.27
2019-03-06T10:38:29.747Z,75.82
2019-03-06T10:41:00.231Z,76.86
2019-03-06T10:43:30.666Z,76.56
2019-03-06T10:46:01.656Z,76.16
2019-03-06T10:48:32.679Z,75.93
2019-03-06T10:51:04.877Z,76.86
2019-03-06T10:53:41.284Z,76.70
2019-03-06T10:56:07.594Z,76.81
2019-03-06T10:58:38.251Z,76.91
2019-03-06T11:01:08.884Z,76.36
2019-03-06T11:03:47.449Z,75.66
2019-03-06T11:06:18.148Z,75.78
2019-03-06T11:08:48.963Z,75.53
2019-03-06T11:11:19.732Z,76.22
2019-03-06T11:13:50.324Z,75.91
2019-03-06T11:16:20.760Z,75.29
2019-03-06T11:18:51.610Z,76.16
2019-03-06T11:21:23.098Z,75.47
2019-03-06T11:23:53.572Z,75.68
2019-03-06T11:26:24.214Z,75.56
2019-03-06T11:28:57.024Z,75.09
2019-03-06T11:31:27.452Z,75.05
2019-03-06T11:33:58.233Z,75.09
2019-03-06T11:36:29.087Z,74.98
2019-03-06T11:38:59.505Z,75.41
2019-03-06T11:41:30.731Z,75.55
2019-03-06T11:44:01.213Z,75.01
2019-03-06T11:46:31.664Z,73.51
2019-03-06T11:49:02.707Z,73.77
2019-03-06T11:51:33.873Z,73.85
2019-03-06T11:54:04.600Z,73.11
2019-03-06T11:56:35.958Z,73.16
2019-03-06T11:59:06.747Z,72.33
2019-03-06T12:01:47.214Z,71.52
2019-03-06T12:04:10.244Z,72.03
2019-03-06T12:06:41.019Z,71.00
2019-03-06T12:09:31.416Z,70.51
2019-03-06T12:12:03.974Z,69.82
2019-03-06T12:14:34.473Z,70.23
2019-03-06T12:17:05.418Z,70.45
2019-03-06T12:19:36.172Z,69.47
2019-03-06T12:22:06.617Z,68.96
2019-03-06T12:24:37.084Z,68.90
2019-03-06T12:27:07.866Z,68.36
2019-03-06T12:29:38.695Z,68.17
2019-03-06T12:32:09.119Z,68.16
2019-03-06T12:34:39.605Z,68.18
2019-03-06T12:37:10.043Z,67.67
2019-03-06T12:39:40.466Z,68.18
2019-03-06T12:42:14.232Z,66.56
2019-03-06T12:44:43.354Z,67.46
2019-03-06T12:47:14.194Z,67.00
2019-03-06T12:49:44.996Z,67.34
2019-03-06T12:52:16.020Z,67.62
2019-03-06T12:54:46.444Z,67.37
2019-03-06T12:57:17.109Z,67.72
2019-03-06T12:59:47.872Z,67.03
2019-03-06T13:02:18.358Z,66.46
2019-03-06T13:04:48.856Z,67.26
2019-03-06T13:07:19.650Z,66.68
2019-03-06T13:09:50.246Z,66.53
2019-03-06T13:12:20.757Z,66.38
2019-03-06T13:14:51.180Z,66.49
2019-03-06T13:17:21.611Z,66.28
2019-03-06T13:19:52.456Z,66.16
2019-03-06T13:22:22.889Z,66.54
2019-03-06T13:24:53.316Z,65.01
2019-03-06T13:27:23.831Z,64.93
2019-03-06T13:29:54.283Z,64.01
2019-03-06T13:32:30.444Z,63.80
2019-03-06T13:35:03.849Z,63.70
2019-03-06T13:37:34.627Z,64.02
2019-03-06T13:40:05.568Z,62.38
2019-03-06T13:42:36.047Z,62.27
2019-03-06T13:45:06.892Z,62.14
2019-03-06T13:47:37.599Z,64.16
2019-03-06T13:50:11.635Z,62.94
2019-03-06T13:52:41.555Z,62.25
2019-03-06T13:55:12.224Z,62.50
2019-03-06T13:57:44.370Z,62.93
2019-03-06T14:00:17.032Z,62.76
2019-03-06T14:02:47.589Z,62.80
2019-03-06T14:05:19.222Z,62.65
2019-03-06T14:07:56.468Z,62.70
2019-03-06T14:10:22.756Z,62.08
2019-03-06T14:12:53.979Z,62.46
2019-03-06T14:15:24.860Z,62.92
2019-03-06T14:17:56.416Z,62.56
2019-03-06T14:20:27.120Z,62.25
2019-03-06T14:22:57.718Z,62.56
2019-03-06T14:25:28.327Z,62.72
2019-03-06T14:27:59.111Z,62.65
2019-03-06T14:30:30.036Z,62.25
2019-03-06T14:33:00.630Z,61.80
2019-03-06T14:35:32.013Z,61.82
2019-03-06T14:38:03.067Z,62.49
2019-03-06T14:40:34.014Z,61.78
2019-03-06T14:43:06.776Z,61.38
2019-03-06T14:45:37.865Z,61.76
2019-03-06T14:48:08.413Z,61.73
2019-03-06T14:50:38.839Z,61.42
2019-03-06T14:53:09.513Z,60.44
2019-03-06T14:55:39.943Z,60.73
2019-03-06T14:58:10.384Z,60.53
2019-03-06T15:00:40.868Z,60.59
2019-03-06T15:03:11.499Z,60.53
2019-03-06T15:05:47.077Z,60.59
2019-03-06T15:08:14.217Z,60.78
2019-03-06T15:10:44.984Z,60.88
2019-03-06T15:13:16.033Z,59.99
2019-03-06T15:15:46.617Z,60.83
2019-03-06T15:18:17.475Z,59.49
2019-03-06T15:20:48.019Z,60.19
2019-03-06T15:23:18.703Z,61.24
2019-03-06T15:25:49.149Z,60.52
2019-03-06T15:28:19.619Z,60.83
2019-03-06T15:30:50.279Z,60.49
2019-03-06T15:33:21.202Z,61.22
2019-03-06T15:35:51.722Z,61.18
2019-03-06T15:38:22.233Z,61.20
2019-03-06T15:40:53.607Z,59.93
2019-03-06T15:43:24.442Z,60.69
2019-03-06T15:45:54.965Z,59.93
2019-03-06T15:48:28.915Z,60.43
2019-03-06T15:50:59.458Z,60.35
2019-03-06T15:53:32.530Z,60.44
2019-03-06T15:56:04.157Z,60.78
2019-03-06T15:58:34.626Z,60.27
2019-03-06T16:01:05.679Z,60.63
2019-03-06T16:03:37.117Z,60.91
2019-03-06T16:06:07.665Z,60.75
2019-03-06T16:08:38.228Z,60.89
2019-03-06T16:11:08.774Z,60.63
2019-03-06T16:13:39.205Z,61.20
2019-03-06T16:16:10.094Z,61.79
2019-03-06T16:18:40.514Z,61.33
2019-03-06T16:21:11.904Z,61.49
2019-03-06T16:23:42.475Z,62.23
2019-03-06T16:26:13.917Z,62.45
2019-03-06T16:28:44.637Z,63.34
2019-03-06T16:31:16.722Z,63.88
2019-03-06T16:33:48.894Z,63.29
2019-03-06T16:36:19.658Z,63.32
2019-03-06T16:38:51.591Z,63.26
2019-03-06T16:41:22.355Z,64.76
2019-03-06T16:43:54.702Z,64.68
2019-03-06T16:46:25.300Z,65.31
2019-03-06T16:48:56.264Z,64.87
2019-03-06T16:51:29.131Z,64.36
2019-03-06T16:53:59.648Z,64.40
2019-03-06T16:56:30.342Z,64.61
2019-03-06T16:59:01.099Z,64.49
2019-03-06T17:01:31.702Z,64.44
2019-03-06T17:04:03.033Z,64.83
2019-03-06T17:06:33.574Z,63.87
2019-03-06T17:09:07.428Z,63.94
2019-03-06T17:11:38.063Z,64.06
2019-03-06T17:14:08.558Z,63.91
2019-03-06T17:16:39.039Z,64.04
2019-03-06T17:19:11.040Z,63.61
2019-03-06T17:21:41.657Z,63.41
2019-03-06T17:24:14.784Z,63.72
2019-03-06T17:26:45.228Z,64.17
2019-03-06T17:29:15.826Z,64.08
2019-03-06T17:31:46.349Z,64.21
2019-03-06T17:34:17.960Z,64.31
2019-03-06T17:36:48.431Z,64.65
2019-03-06T17:39:19.544Z,64.84
2019-03-06T17:41:49.992Z,65.02
2019-03-06T17:44:20.540Z,65.44
2019-03-06T17:46:51.749Z,65.74
2019-03-06T17:49:22.683Z,66.40
2019-03-06T17:51:53.124Z,67.62
2019-03-06T17:54:23.935Z,67.46
2019-03-06T17:56:54.364Z,68.77
2019-03-06T17:59:25.530Z,69.06
2019-03-06T18:01:56.008Z,70.66
2019-03-06T18:04:27.267Z,70.82
2019-03-06T18:06:57.708Z,70.85
2019-03-06T18:09:29.908Z,70.58
2019-03-06T18:12:02.492Z,70.06
2019-03-06T18:14:34.032Z,70.68
2019-03-06T18:17:04.511Z,70.08
2019-03-06T18:19:35.076Z,70.40
2019-03-06T18:22:05.814Z,70.28
2019-03-06T18:24:36.292Z,70.27
2019-03-06T18:27:09.793Z,70.26
2019-03-06T18:29:40.297Z,69.92
2019-03-06T18:32:10.898Z,69.79
2019-03-06T18:34:41.826Z,69.81
2019-03-06T18:37:12.619Z,70.23
2019-03-06T18:39:43.459Z,70.06
2019-03-06T18:42:14.302Z,69.52
2019-03-06T18:44:45.458Z,69.43
2019-03-06T18:47:16.392Z,69.33
2019-03-06T18:49:47.532Z,69.25
2019-03-06T18:52:18.705Z,69.91
2019-03-06T18:54:49.318Z,69.41
2019-03-06T18:57:20.154Z,69.24
2019-03-06T18:59:50.759Z,69.11
2019-03-06T19:02:21.196Z,68.89
2019-03-06T19:04:53.108Z,68.23
2019-03-06T19:07:26.260Z,68.99
2019-03-06T19:09:57.012Z,68.50
2019-03-06T19:12:27.775Z,68.28
2019-03-06T19:15:00.534Z,68.64
2019-03-06T19:17:31.849Z,69.02
2019-03-06T19:20:02.386Z,68.37
2019-03-06T19:22:33.223Z,68.29
2019-03-06T19:25:05.803Z,68.46
2019-03-06T19:27:36.790Z,68.31
2019-03-06T19:30:16.568Z,68.56
2019-03-06T19:32:47.422Z,68.74
2019-03-06T19:35:18.996Z,68.54
2019-03-06T19:37:49.432Z,69.00
2019-03-06T19:40:20.314Z,69.41
2019-03-06T19:42:51.035Z,69.59
2019-03-06T19:45:22.281Z,69.41
2019-03-06T19:47:55.801Z,69.56
2019-03-06T19:50:26.536Z,69.32
2019-03-06T19:52:57.825Z,68.84
2019-03-06T19:55:29.000Z,69.71
2019-03-06T19:58:02.232Z,69.54
2019-03-06T20:00:33.155Z,69.27
2019-03-06T20:03:04.331Z,69.59
2019-03-06T20:05:36.036Z,69.04
2019-03-06T20:08:10.126Z,68.75
2019-03-06T20:10:41.400Z,68.68
2019-03-06T20:13:12.448Z,68.41
2019-03-06T20:15:44.919Z,69.00
2019-03-06T20:18:16.667Z,69.09
2019-03-06T20:20:49.796Z,68.22
2019-03-06T20:23:20.512Z,68.34
2019-03-06T20:25:51.557Z,68.52
2019-03-06T20:28:23.719Z,68.25
2019-03-06T20:30:54.560Z,67.92
2019-03-06T20:33:25.270Z,67.87
2019-03-06T20:35:56.128Z,67.74
2019-03-06T20:38:26.602Z,67.57
2019-03-06T20:40:57.061Z,67.06
2019-03-06T20:43:27.917Z,67.49
2019-03-06T20:45:58.377Z,67.25
2019-03-06T20:48:29.804Z,67.42
2019-03-06T20:51:00.305Z,66.71
2019-03-06T20:53:30.739Z,66.98
2019-03-06T20:56:01.619Z,66.46
2019-03-06T20:58:32.376Z,66.57
2019-03-06T21:01:03.453Z,67.13
2019-03-06T21:03:34.287Z,66.53
2019-03-06T21:06:04.757Z,66.62
2019-03-06T21:08:35.380Z,66.69
2019-03-06T21:11:06.348Z,66.03
2019-03-06T21:13:37.187Z,66.67
2019-03-06T21:16:09.946Z,66.34
2019-03-06T21:18:40.726Z,66.82
2019-03-06T21:21:15.126Z,66.65
2019-03-06T21:23:46.207Z,66.60
2019-03-06T21:26:16.681Z,67.03
2019-03-06T21:28:47.524Z,66.53
2019-03-06T21:31:18.458Z,66.31
2019-03-06T21:33:48.991Z,67.01
2019-03-06T21:36:19.523Z,66.75
2019-03-06T21:38:50.157Z,66.67
2019-03-06T21:41:22.429Z,66.82
2019-03-06T21:43:52.896Z,66.50
2019-03-06T21:46:23.376Z,66.60
2019-03-06T21:48:53.967Z,66.74
2019-03-06T21:51:24.488Z,66.77
2019-03-06T21:53:54.966Z,67.21
2019-03-06T21:56:25.416Z,67.23
2019-03-06T21:58:56.768Z,67.22
2019-03-06T22:01:27.883Z,67.67
2019-03-06T22:03:58.369Z,68.28
2019-03-06T22:06:29.289Z,68.65
2019-03-06T22:09:00.057Z,68.80
2019-03-06T22:11:30.589Z,69.22
2019-03-06T22:14:01.505Z,69.37
2019-03-06T22:16:32.556Z,69.55
2019-03-06T22:19:03.005Z,69.53
2019-03-06T22:21:33.474Z,69.75
2019-03-06T22:24:03.937Z,69.55
2019-03-06T22:26:34.453Z,69.79
2019-03-06T22:29:05.455Z,69.88
2019-03-06T22:31:36.233Z,69.44
2019-03-06T22:34:06.696Z,70.26
2019-03-06T22:36:37.206Z,69.82
2019-03-06T22:39:09.478Z,70.43
2019-03-06T22:41:39.917Z,70.59
2019-03-06T22:44:10.494Z,69.91
2019-03-06T22:46:42.732Z,70.01
2019-03-06T22:49:13.167Z,69.68
2019-03-06T22:51:43.811Z,69.65
2019-03-06T22:54:14.230Z,69.67
2019-03-06T22:56:44.715Z,70.01
2019-03-06T22:59:15.147Z,70.47
2019-03-06T23:01:46.943Z,70.39
2019-03-06T23:04:18.396Z,70.60
2019-03-06T23:06:49.137Z,71.11
2019-03-06T23:09:20.187Z,71.31
2019-03-06T23:11:50.677Z,71.32
2019-03-06T23:14:21.112Z,71.72
2019-03-06T23:16:52.369Z,72.31
2019-03-06T23:19:23.236Z,72.01
2019-03-06T23:21:53.741Z,71.40
2019-03-06T23:24:24.182Z,71.47
2019-03-06T23:26:54.705Z,71.79
2019-03-06T23:29:25.415Z,71.66
2019-03-06T23:31:56.207Z,71.69
2019-03-06T23:34:26.801Z,71.35
2019-03-06T23:36:57.236Z,71.51
2019-03-06T23:39:28.013Z,71.94
2019-03-06T23:41:58.878Z,71.84
2019-03-06T23:44:30.424Z,71.62
2019-03-06T23:47:01.128Z,71.59
2019-03-06T23:49:31.590Z,71.45
2019-03-06T23:52:09.489Z,71.36
2019-03-06T23:54:39.988Z,71.09
2019-03-06T23:57:10.415Z,70.42
2019-03-06T23:59:40.836Z,70.91
